sensor_id;sensor_type;location;lat;lon;timestamp;pressure;altitude;pressure_sealevel;temperature;humidity
27729;BME280;15126;42.186;24.340;2022-10-17T00:00:41;100718.22;;;9.84;76.19
27729;BME280;15126;42.186;24.340;2022-10-17T00:03:08;100725.78;;;9.84;75.88
27729;BME280;15126;42.186;24.340;2022-10-17T00:05:38;100727.00;;;9.83;76.32
27729;BME280;15126;42.186;24.340;2022-10-17T00:08:05;100730.56;;;9.83;75.76
27729;BME280;15126;42.186;24.340;2022-10-17T00:10:31;100728.97;;;9.82;75.48
27729;BME280;15126;42.186;24.340;2022-10-17T00:12:58;100727.38;;;9.81;75.49
27729;BME280;15126;42.186;24.340;2022-10-17T00:15:25;100709.81;;;9.70;75.79
27729;BME280;15126;42.186;24.340;2022-10-17T00:17:53;100731.34;;;9.80;75.33
27729;BME280;15126;42.186;24.340;2022-10-17T00:20:20;100730.16;;;9.78;76.06
27729;BME280;15126;42.186;24.340;2022-10-17T00:22:47;100721.75;;;9.67;76.65
27729;BME280;15126;42.186;24.340;2022-10-17T00:25:13;100727.31;;;9.71;76.66
27729;BME280;15126;42.186;24.340;2022-10-17T00:27:41;100715.41;;;9.70;76.10
27729;BME280;15126;42.186;24.340;2022-10-17T00:30:10;100711.34;;;9.61;75.80
27729;BME280;15126;42.186;24.340;2022-10-17T00:32:37;100728.09;;;9.68;76.37
27729;BME280;15126;42.186;24.340;2022-10-17T00:35:06;100729.69;;;9.69;76.54
27729;BME280;15126;42.186;24.340;2022-10-17T00:37:33;100720.91;;;9.63;76.55
27729;BME280;15126;42.186;24.340;2022-10-17T00:40:00;100712.09;;;9.54;76.72
27729;BME280;15126;42.186;24.340;2022-10-17T00:42:27;100735.63;;;9.60;76.55
27729;BME280;15126;42.186;24.340;2022-10-17T00:47:48;100733.59;;;9.53;76.86
27729;BME280;15126;42.186;24.340;2022-10-17T00:50:18;100720.00;;;9.41;77.43
27729;BME280;15126;42.186;24.340;2022-10-17T00:52:46;100729.53;;;9.44;77.07
27729;BME280;15126;42.186;24.340;2022-10-17T00:55:19;100733.09;;;9.41;78.09
27729;BME280;15126;42.186;24.340;2022-10-17T00:57:47;100733.50;;;9.39;77.93
27729;BME280;15126;42.186;24.340;2022-10-17T01:00:16;100731.91;;;9.38;78.11
27729;BME280;15126;42.186;24.340;2022-10-17T01:02:43;100730.66;;;9.32;78.15
27729;BME280;15126;42.186;24.340;2022-10-17T01:05:11;100729.47;;;9.33;78.07
27729;BME280;15126;42.186;24.340;2022-10-17T01:07:40;100733.47;;;9.36;77.25
27729;BME280;15126;42.186;24.340;2022-10-17T01:10:09;100734.66;;;9.35;77.41
27729;BME280;15126;42.186;24.340;2022-10-17T01:12:47;100727.47;;;9.30;77.61
27729;BME280;15126;42.186;24.340;2022-10-17T01:15:26;100720.22;;;9.19;77.93
27729;BME280;15126;42.186;24.340;2022-10-17T01:18:03;100732.59;;;9.25;78.44
27729;BME280;15126;42.186;24.340;2022-10-17T01:20:55;100745.34;;;9.26;78.68
27729;BME280;15126;42.186;24.340;2022-10-17T01:26:43;100740.13;;;9.21;77.72
27729;BME280;15126;42.186;24.340;2022-10-17T01:29:36;100740.50;;;9.19;77.46
27729;BME280;15126;42.186;24.340;2022-10-17T01:32:13;100737.28;;;9.14;77.95
27729;BME280;15126;42.186;24.340;2022-10-17T01:34:45;100740.88;;;9.14;77.66
27729;BME280;15126;42.186;24.340;2022-10-17T01:37:19;100740.06;;;9.10;77.77
27729;BME280;15126;42.186;24.340;2022-10-17T01:39:49;100742.03;;;9.10;77.22
27729;BME280;15126;42.186;24.340;2022-10-17T01:42:22;100737.28;;;9.10;77.18
27729;BME280;15126;42.186;24.340;2022-10-17T01:44:55;100733.22;;;9.01;77.95
27729;BME280;15126;42.186;24.340;2022-10-17T01:47:28;100735.19;;;9.00;78.11
27729;BME280;15126;42.186;24.340;2022-10-17T01:49:59;100739.13;;;8.95;78.42
27729;BME280;15126;42.186;24.340;2022-10-17T01:52:35;100737.13;;;8.92;78.31
27729;BME280;15126;42.186;24.340;2022-10-17T01:55:06;100738.66;;;8.86;79.04
27729;BME280;15126;42.186;24.340;2022-10-17T01:57:37;100739.47;;;8.87;78.80
27729;BME280;15126;42.186;24.340;2022-10-17T02:00:10;100740.97;;;8.77;79.42
27729;BME280;15126;42.186;24.340;2022-10-17T02:02:42;100748.09;;;8.75;79.53
27729;BME280;15126;42.186;24.340;2022-10-17T02:05:10;100752.88;;;8.74;79.31
27729;BME280;15126;42.186;24.340;2022-10-17T02:07:39;100753.66;;;8.75;78.76
27729;BME280;15126;42.186;24.340;2022-10-17T02:10:11;100759.22;;;8.75;78.73
27729;BME280;15126;42.186;24.340;2022-10-17T02:12:47;100767.91;;;8.70;79.02
27729;BME280;15126;42.186;24.340;2022-10-17T02:15:31;100749.19;;;8.63;79.45
27729;BME280;15126;42.186;24.340;2022-10-17T02:18:15;100759.13;;;8.68;79.05
27729;BME280;15126;42.186;24.340;2022-10-17T02:20:50;100757.88;;;8.62;79.26
27729;BME280;15126;42.186;24.340;2022-10-17T02:23:23;100757.00;;;8.54;79.53
27729;BME280;15126;42.186;24.340;2022-10-17T02:25:59;100773.34;;;8.59;79.85
27729;BME280;15126;42.186;24.340;2022-10-17T02:28:32;100767.38;;;8.57;79.82
27729;BME280;15126;42.186;24.340;2022-10-17T02:31:03;100760.53;;;8.48;79.77
27729;BME280;15126;42.186;24.340;2022-10-17T02:33:38;100777.28;;;8.55;79.54
27729;BME280;15126;42.186;24.340;2022-10-17T02:36:13;100757.31;;;8.42;79.41
27729;BME280;15126;42.186;24.340;2022-10-17T02:38:41;100779.59;;;8.49;79.53
27729;BME280;15126;42.186;24.340;2022-10-17T02:41:12;100781.97;;;8.47;79.76
27729;BME280;15126;42.186;24.340;2022-10-17T02:43:40;100788.63;;;8.39;80.52
27729;BME280;15126;42.186;24.340;2022-10-17T02:46:10;100800.97;;;8.42;80.00
27729;BME280;15126;42.186;24.340;2022-10-17T02:48:48;100792.63;;;8.42;79.96
27729;BME280;15126;42.186;24.340;2022-10-17T02:51:21;100764.22;;;8.25;79.97
27729;BME280;15126;42.186;24.340;2022-10-17T02:53:58;100784.78;;;8.17;81.49
27729;BME280;15126;42.186;24.340;2022-10-17T02:56:28;100785.53;;;8.14;81.81
27729;BME280;15126;42.186;24.340;2022-10-17T02:58:57;100770.78;;;8.10;81.15
27729;BME280;15126;42.186;24.340;2022-10-17T03:01:25;100786.66;;;8.10;81.57
27729;BME280;15126;42.186;24.340;2022-10-17T03:04:06;100770.38;;;8.08;80.57
27729;BME280;15126;42.186;24.340;2022-10-17T03:06:33;100796.91;;;7.76;81.37
27729;BME280;15126;42.186;24.340;2022-10-17T03:09:00;100793.41;;;7.79;82.22
27729;BME280;15126;42.186;24.340;2022-10-17T03:11:27;100793.59;;;7.93;81.22
27729;BME280;15126;42.186;24.340;2022-10-17T03:13:53;100794.44;;;7.97;81.01
27729;BME280;15126;42.186;24.340;2022-10-17T03:16:21;100790.94;;;8.04;80.46
27729;BME280;15126;42.186;24.340;2022-10-17T03:18:47;100797.31;;;8.04;80.44
27729;BME280;15126;42.186;24.340;2022-10-17T03:21:16;100803.28;;;8.06;79.78
27729;BME280;15126;42.186;24.340;2022-10-17T03:23:42;100801.69;;;8.05;79.65
27729;BME280;15126;42.186;24.340;2022-10-17T03:26:09;100798.09;;;8.05;79.60
27729;BME280;15126;42.186;24.340;2022-10-17T03:28:36;100807.63;;;8.04;79.64
27729;BME280;15126;42.186;24.340;2022-10-17T03:31:06;100804.41;;;8.02;79.73
27729;BME280;15126;42.186;24.340;2022-10-17T03:33:34;100797.63;;;7.99;79.70
27729;BME280;15126;42.186;24.340;2022-10-17T03:36:05;100804.13;;;7.80;81.59
27729;BME280;15126;42.186;24.340;2022-10-17T03:38:33;100795.63;;;7.70;81.83
27729;BME280;15126;42.186;24.340;2022-10-17T03:41:00;100812.41;;;7.77;81.02
27729;BME280;15126;42.186;24.340;2022-10-17T03:43:27;100805.19;;;7.72;81.26
27729;BME280;15126;42.186;24.340;2022-10-17T03:45:55;100803.28;;;7.76;81.08
27729;BME280;15126;42.186;24.340;2022-10-17T03:48:26;100812.41;;;7.77;81.32
27729;BME280;15126;42.186;24.340;2022-10-17T03:50:57;100809.75;;;7.58;83.05
27729;BME280;15126;42.186;24.340;2022-10-17T03:53:24;100818.19;;;7.65;81.80
27729;BME280;15126;42.186;24.340;2022-10-17T03:55:52;100825.75;;;7.68;81.23
27729;BME280;15126;42.186;24.340;2022-10-17T03:58:19;100809.94;;;7.46;81.62
27729;BME280;15126;42.186;24.340;2022-10-17T04:00:46;100819.91;;;7.50;81.63
27729;BME280;15126;42.186;24.340;2022-10-17T04:03:13;100800.66;;;7.35;81.73
27729;BME280;15126;42.186;24.340;2022-10-17T04:05:40;100829.94;;;7.55;81.79
27729;BME280;15126;42.186;24.340;2022-10-17T04:08:06;100816.25;;;7.43;82.11
27729;BME280;15126;42.186;24.340;2022-10-17T04:10:33;100823.59;;;7.32;83.71
27729;BME280;15126;42.186;24.340;2022-10-17T04:13:01;100818.66;;;7.44;82.49
27729;BME280;15126;42.186;24.340;2022-10-17T04:15:30;100825.75;;;7.42;82.38
27729;BME280;15126;42.186;24.340;2022-10-17T04:17:56;100825.88;;;7.49;81.44
27729;BME280;15126;42.186;24.340;2022-10-17T04:20:23;100830.59;;;7.48;81.49
27729;BME280;15126;42.186;24.340;2022-10-17T04:22:50;100828.22;;;7.47;81.20
27729;BME280;15126;42.186;24.340;2022-10-17T04:25:17;100828.72;;;7.30;81.70
27729;BME280;15126;42.186;24.340;2022-10-17T04:27:44;100850.13;;;7.29;82.49
27729;BME280;15126;42.186;24.340;2022-10-17T04:30:15;100847.16;;;7.18;83.21
27729;BME280;15126;42.186;24.340;2022-10-17T04:32:41;100854.56;;;7.11;83.66
27729;BME280;15126;42.186;24.340;2022-10-17T04:35:08;100845.50;;;7.14;83.38
27729;BME280;15126;42.186;24.340;2022-10-17T04:37:35;100846.75;;;7.16;83.70
27729;BME280;15126;42.186;24.340;2022-10-17T04:40:06;100840.13;;;7.25;82.67
27729;BME280;15126;42.186;24.340;2022-10-17T04:42:33;100833.84;;;7.28;82.67
27729;BME280;15126;42.186;24.340;2022-10-17T04:45:00;100832.38;;;7.34;81.81
27729;BME280;15126;42.186;24.340;2022-10-17T04:47:28;100831.09;;;7.31;82.13
27729;BME280;15126;42.186;24.340;2022-10-17T04:49:55;100828.06;;;7.36;81.70
27729;BME280;15126;42.186;24.340;2022-10-17T04:52:22;100832.06;;;7.39;81.97
27729;BME280;15126;42.186;24.340;2022-10-17T04:54:49;100831.19;;;7.35;82.10
27729;BME280;15126;42.186;24.340;2022-10-17T04:57:16;100849.47;;;7.39;81.88
27729;BME280;15126;42.186;24.340;2022-10-17T04:59:44;100865.53;;;7.49;82.29
27729;BME280;15126;42.186;24.340;2022-10-17T05:02:11;100867.50;;;7.49;82.38
27729;BME280;15126;42.186;24.340;2022-10-17T05:04:39;100864.63;;;7.42;82.00
27729;BME280;15126;42.186;24.340;2022-10-17T05:07:06;100874.84;;;7.38;82.64
27729;BME280;15126;42.186;24.340;2022-10-17T05:09:33;100878.84;;;7.40;82.48
27729;BME280;15126;42.186;24.340;2022-10-17T05:11:59;100886.50;;;7.47;82.22
27729;BME280;15126;42.186;24.340;2022-10-17T05:14:28;100890.44;;;7.46;81.85
27729;BME280;15126;42.186;24.340;2022-10-17T05:16:55;100877.69;;;7.41;81.60
27729;BME280;15126;42.186;24.340;2022-10-17T05:19:21;100896.66;;;7.62;81.19
27729;BME280;15126;42.186;24.340;2022-10-17T05:21:50;100885.50;;;7.58;82.07
27729;BME280;15126;42.186;24.340;2022-10-17T05:24:16;100878.50;;;7.68;81.42
27729;BME280;15126;42.186;24.340;2022-10-17T05:26:43;100883.72;;;7.47;82.90
27729;BME280;15126;42.186;24.340;2022-10-17T05:29:10;100870.09;;;7.38;83.79
27729;BME280;15126;42.186;24.340;2022-10-17T05:31:37;100877.00;;;7.25;83.44
27729;BME280;15126;42.186;24.340;2022-10-17T05:34:03;100910.78;;;7.53;83.36
27729;BME280;15126;42.186;24.340;2022-10-17T05:36:30;100899.75;;;7.57;82.88
27729;BME280;15126;42.186;24.340;2022-10-17T05:38:58;100917.31;;;7.87;82.09
27729;BME280;15126;42.186;24.340;2022-10-17T05:41:25;100909.19;;;8.01;81.69
27729;BME280;15126;42.186;24.340;2022-10-17T05:43:52;100885.78;;;8.02;81.77
27729;BME280;15126;42.186;24.340;2022-10-17T05:46:19;100913.19;;;8.30;81.26
27729;BME280;15126;42.186;24.340;2022-10-17T05:48:46;100910.16;;;8.38;81.11
27729;BME280;15126;42.186;24.340;2022-10-17T05:51:12;100929.88;;;8.60;80.62
27729;BME280;15126;42.186;24.340;2022-10-17T05:53:40;100928.50;;;8.76;79.75
27729;BME280;15126;42.186;24.340;2022-10-17T05:56:10;100931.81;;;8.85;79.80
27729;BME280;15126;42.186;24.340;2022-10-17T05:58:39;100935.13;;;8.98;79.56
27729;BME280;15126;42.186;24.340;2022-10-17T06:01:07;100938.94;;;9.20;78.38
27729;BME280;15126;42.186;24.340;2022-10-17T06:03:33;100947.50;;;9.37;78.05
27729;BME280;15126;42.186;24.340;2022-10-17T06:06:04;100952.00;;;9.52;77.55
27729;BME280;15126;42.186;24.340;2022-10-17T06:08:33;100946.13;;;9.61;77.71
27729;BME280;15126;42.186;24.340;2022-10-17T06:11:00;100946.34;;;9.86;76.61
27729;BME280;15126;42.186;24.340;2022-10-17T06:13:28;100947.97;;;9.90;76.06
27729;BME280;15126;42.186;24.340;2022-10-17T06:15:55;100956.47;;;10.08;75.72
27729;BME280;15126;42.186;24.340;2022-10-17T06:18:23;100935.47;;;10.21;75.26
27729;BME280;15126;42.186;24.340;2022-10-17T06:20:50;100944.25;;;10.23;74.18
27729;BME280;15126;42.186;24.340;2022-10-17T06:23:18;100951.56;;;10.45;74.34
27729;BME280;15126;42.186;24.340;2022-10-17T06:25:45;100972.38;;;10.65;72.52
27729;BME280;15126;42.186;24.340;2022-10-17T06:28:11;100962.53;;;10.86;72.35
27729;BME280;15126;42.186;24.340;2022-10-17T06:30:40;100966.19;;;11.00;71.31
27729;BME280;15126;42.186;24.340;2022-10-17T06:33:07;100974.19;;;11.05;70.79
27729;BME280;15126;42.186;24.340;2022-10-17T06:35:33;100973.44;;;11.26;69.58
27729;BME280;15126;42.186;24.340;2022-10-17T06:38:00;100980.28;;;11.46;70.50
27729;BME280;15126;42.186;24.340;2022-10-17T06:40:28;100973.13;;;11.66;70.18
27729;BME280;15126;42.186;24.340;2022-10-17T06:42:55;100973.59;;;11.79;70.81
27729;BME280;15126;42.186;24.340;2022-10-17T06:45:23;100984.75;;;11.93;69.02
27729;BME280;15126;42.186;24.340;2022-10-17T06:47:51;100975.97;;;11.94;68.53
27729;BME280;15126;42.186;24.340;2022-10-17T06:50:18;100977.56;;;12.17;68.27
27729;BME280;15126;42.186;24.340;2022-10-17T06:52:45;100977.16;;;12.18;68.47
27729;BME280;15126;42.186;24.340;2022-10-17T06:55:11;100969.56;;;12.26;67.06
27729;BME280;15126;42.186;24.340;2022-10-17T06:57:38;100975.13;;;12.40;67.38
27729;BME280;15126;42.186;24.340;2022-10-17T07:00:06;100975.94;;;12.44;67.00
27729;BME280;15126;42.186;24.340;2022-10-17T07:02:33;100973.50;;;12.53;65.82
27729;BME280;15126;42.186;24.340;2022-10-17T07:05:01;100979.13;;;12.42;65.77
27729;BME280;15126;42.186;24.340;2022-10-17T07:07:29;100973.53;;;12.49;65.92
27729;BME280;15126;42.186;24.340;2022-10-17T07:09:56;100967.91;;;12.64;66.10
27729;BME280;15126;42.186;24.340;2022-10-17T07:12:23;100976.28;;;12.74;65.76
27729;BME280;15126;42.186;24.340;2022-10-17T07:14:50;100972.22;;;12.89;66.09
27729;BME280;15126;42.186;24.340;2022-10-17T07:17:17;100968.28;;;12.66;65.74
27729;BME280;15126;42.186;24.340;2022-10-17T07:19:44;100977.38;;;12.94;65.89
27729;BME280;15126;42.186;24.340;2022-10-17T07:22:12;100973.31;;;13.13;65.91
27729;BME280;15126;42.186;24.340;2022-10-17T07:24:42;100984.03;;;13.32;65.43
27729;BME280;15126;42.186;24.340;2022-10-17T07:27:08;100977.19;;;13.44;65.85
27729;BME280;15126;42.186;24.340;2022-10-17T07:29:35;100995.84;;;13.64;65.14
27729;BME280;15126;42.186;24.340;2022-10-17T07:32:02;100986.16;;;13.80;64.64
27729;BME280;15126;42.186;24.340;2022-10-17T07:34:32;100970.13;;;13.80;63.81
27729;BME280;15126;42.186;24.340;2022-10-17T07:36:59;100988.78;;;14.01;62.81
27729;BME280;15126;42.186;24.340;2022-10-17T07:39:28;100987.06;;;14.14;62.26
27729;BME280;15126;42.186;24.340;2022-10-17T07:41:54;100993.38;;;14.28;62.69
27729;BME280;15126;42.186;24.340;2022-10-17T07:44:23;100990.19;;;14.26;63.89
27729;BME280;15126;42.186;24.340;2022-10-17T07:46:50;100988.13;;;14.38;61.25
27729;BME280;15126;42.186;24.340;2022-10-17T07:49:16;100983.97;;;14.49;61.71
27729;BME280;15126;42.186;24.340;2022-10-17T07:51:43;100985.91;;;14.56;61.56
27729;BME280;15126;42.186;24.340;2022-10-17T07:54:10;100966.28;;;14.52;62.60
27729;BME280;15126;42.186;24.340;2022-10-17T07:56:39;100973.31;;;14.71;60.87
27729;BME280;15126;42.186;24.340;2022-10-17T07:59:06;100976.75;;;14.85;60.47
27729;BME280;15126;42.186;24.340;2022-10-17T08:01:33;100969.41;;;14.95;60.59
27729;BME280;15126;42.186;24.340;2022-10-17T08:04:00;100966.84;;;15.08;60.40
27729;BME280;15126;42.186;24.340;2022-10-17T08:06:27;100964.44;;;15.06;59.16
27729;BME280;15126;42.186;24.340;2022-10-17T08:08:54;100967.88;;;15.21;60.23
27729;BME280;15126;42.186;24.340;2022-10-17T08:11:22;100931.56;;;15.03;57.89
27729;BME280;15126;42.186;24.340;2022-10-17T08:13:51;100961.75;;;15.29;59.20
27729;BME280;15126;42.186;24.340;2022-10-17T08:16:18;100960.44;;;15.37;57.27
27729;BME280;15126;42.186;24.340;2022-10-17T08:18:44;100958.34;;;15.41;57.87
27729;BME280;15126;42.186;24.340;2022-10-17T08:21:11;100961.47;;;15.51;58.30
27729;BME280;15126;42.186;24.340;2022-10-17T08:23:39;100956.56;;;15.55;59.37
27729;BME280;15126;42.186;24.340;2022-10-17T08:26:06;100962.44;;;15.67;55.86
27729;BME280;15126;42.186;24.340;2022-10-17T08:28:35;100955.78;;;15.81;56.30
27729;BME280;15126;42.186;24.340;2022-10-17T08:31:04;100966.44;;;15.93;56.87
27729;BME280;15126;42.186;24.340;2022-10-17T08:33:32;100958.25;;;16.02;55.67
27729;BME280;15126;42.186;24.340;2022-10-17T08:35:59;100965.34;;;16.10;55.41
27729;BME280;15126;42.186;24.340;2022-10-17T08:38:27;100958.38;;;16.18;54.84
27729;BME280;15126;42.186;24.340;2022-10-17T08:40:56;100953.38;;;16.06;53.98
27729;BME280;15126;42.186;24.340;2022-10-17T08:43:32;100959.13;;;16.22;53.71
27729;BME280;15126;42.186;24.340;2022-10-17T08:46:06;100963.16;;;16.21;53.09
27729;BME280;15126;42.186;24.340;2022-10-17T08:48:37;100928.63;;;15.94;54.59
27729;BME280;15126;42.186;24.340;2022-10-17T08:51:10;100955.25;;;16.36;54.32
27729;BME280;15126;42.186;24.340;2022-10-17T08:53:46;100926.03;;;16.26;53.03
27729;BME280;15126;42.186;24.340;2022-10-17T08:56:19;100930.13;;;16.45;53.13
27729;BME280;15126;42.186;24.340;2022-10-17T08:58:46;100945.91;;;16.62;52.77
27729;BME280;15126;42.186;24.340;2022-10-17T09:01:27;100922.81;;;16.47;53.94
27729;BME280;15126;42.186;24.340;2022-10-17T09:04:10;100938.19;;;16.86;53.84
27729;BME280;15126;42.186;24.340;2022-10-17T09:06:46;100928.22;;;16.81;53.40
27729;BME280;15126;42.186;24.340;2022-10-17T09:09:27;100922.53;;;16.85;50.81
27729;BME280;15126;42.186;24.340;2022-10-17T09:12:08;100938.25;;;17.02;52.10
27729;BME280;15126;42.186;24.340;2022-10-17T09:15:02;100942.78;;;17.15;50.72
27729;BME280;15126;42.186;24.340;2022-10-17T09:17:44;100934.34;;;17.15;51.10
27729;BME280;15126;42.186;24.340;2022-10-17T09:20:19;100936.56;;;17.24;49.94
27729;BME280;15126;42.186;24.340;2022-10-17T09:22:53;100927.97;;;17.31;50.62
27729;BME280;15126;42.186;24.340;2022-10-17T09:25:21;100923.53;;;17.30;48.91
27729;BME280;15126;42.186;24.340;2022-10-17T09:27:51;100927.28;;;17.43;49.50
27729;BME280;15126;42.186;24.340;2022-10-17T09:30:33;100916.34;;;17.45;49.05
27729;BME280;15126;42.186;24.340;2022-10-17T09:33:09;100926.78;;;17.64;47.23
27729;BME280;15126;42.186;24.340;2022-10-17T09:35:37;100919.91;;;17.65;49.48
27729;BME280;15126;42.186;24.340;2022-10-17T09:38:04;100906.78;;;17.59;48.62
27729;BME280;15126;42.186;24.340;2022-10-17T09:40:34;100911.00;;;17.83;49.46
27729;BME280;15126;42.186;24.340;2022-10-17T09:43:04;100910.50;;;17.88;48.63
27729;BME280;15126;42.186;24.340;2022-10-17T09:45:32;100925.75;;;18.07;47.94
27729;BME280;15126;42.186;24.340;2022-10-17T09:48:10;100917.09;;;18.14;46.90
27729;BME280;15126;42.186;24.340;2022-10-17T09:50:41;100920.41;;;18.25;48.37
27729;BME280;15126;42.186;24.340;2022-10-17T09:53:12;100891.66;;;18.14;45.98
27729;BME280;15126;42.186;24.340;2022-10-17T09:55:42;100903.31;;;18.16;46.20
27729;BME280;15126;42.186;24.340;2022-10-17T09:58:11;100906.09;;;18.32;46.04
27729;BME280;15126;42.186;24.340;2022-10-17T10:00:39;100913.69;;;18.35;47.94
27729;BME280;15126;42.186;24.340;2022-10-17T10:03:14;100906.00;;;18.35;46.46
27729;BME280;15126;42.186;24.340;2022-10-17T10:05:58;100895.34;;;18.27;47.40
27729;BME280;15126;42.186;24.340;2022-10-17T10:08:28;100906.06;;;18.48;45.81
27729;BME280;15126;42.186;24.340;2022-10-17T10:11:00;100895.94;;;18.51;46.13
27729;BME280;15126;42.186;24.340;2022-10-17T10:13:30;100889.03;;;18.52;44.97
27729;BME280;15126;42.186;24.340;2022-10-17T10:16:14;100895.81;;;18.54;43.86
27729;BME280;15126;42.186;24.340;2022-10-17T10:18:43;100888.09;;;18.71;44.67
27729;BME280;15126;42.186;24.340;2022-10-17T10:21:12;100886.06;;;18.71;45.38
27729;BME280;15126;42.186;24.340;2022-10-17T10:23:44;100886.78;;;18.88;44.92
27729;BME280;15126;42.186;24.340;2022-10-17T10:26:20;100877.28;;;18.94;42.11
27729;BME280;15126;42.186;24.340;2022-10-17T10:28:57;100877.97;;;18.98;41.37
27729;BME280;15126;42.186;24.340;2022-10-17T10:31:36;100882.84;;;19.11;43.29
27729;BME280;15126;42.186;24.340;2022-10-17T10:34:15;100879.66;;;19.09;42.11
27729;BME280;15126;42.186;24.340;2022-10-17T10:36:50;100871.75;;;19.16;41.68
27729;BME280;15126;42.186;24.340;2022-10-17T10:39:29;100875.94;;;19.12;41.89
27729;BME280;15126;42.186;24.340;2022-10-17T10:41:57;100874.09;;;18.92;42.22
27729;BME280;15126;42.186;24.340;2022-10-17T10:44:25;100878.53;;;18.93;45.08
27729;BME280;15126;42.186;24.340;2022-10-17T10:47:13;100870.28;;;19.12;42.22
27729;BME280;15126;42.186;24.340;2022-10-17T10:49:43;100876.06;;;19.21;42.74
27729;BME280;15126;42.186;24.340;2022-10-17T10:52:17;100854.00;;;19.16;39.86
27729;BME280;15126;42.186;24.340;2022-10-17T10:54:52;100863.63;;;19.31;42.21
27729;BME280;15126;42.186;24.340;2022-10-17T10:57:22;100864.75;;;19.33;40.54
27729;BME280;15126;42.186;24.340;2022-10-17T10:59:58;100866.03;;;19.45;40.94
27729;BME280;15126;42.186;24.340;2022-10-17T11:02:30;100865.34;;;19.53;39.52
27729;BME280;15126;42.186;24.340;2022-10-17T11:05:05;100860.56;;;19.63;38.01
27729;BME280;15126;42.186;24.340;2022-10-17T11:07:37;100856.94;;;19.63;38.74
27729;BME280;15126;42.186;24.340;2022-10-17T11:10:12;100854.09;;;19.63;38.29
27729;BME280;15126;42.186;24.340;2022-10-17T11:12:44;100829.34;;;19.54;40.82
27729;BME280;15126;42.186;24.340;2022-10-17T11:15:19;100856.03;;;19.78;38.18
27729;BME280;15126;42.186;24.340;2022-10-17T11:17:54;100859.63;;;19.91;38.77
27729;BME280;15126;42.186;24.340;2022-10-17T11:20:29;100845.25;;;19.86;37.32
27729;BME280;15126;42.186;24.340;2022-10-17T11:23:09;100844.88;;;19.96;37.32
27729;BME280;15126;42.186;24.340;2022-10-17T11:25:39;100827.75;;;20.00;38.12
27729;BME280;15126;42.186;24.340;2022-10-17T11:28:12;100826.50;;;20.01;37.03
27729;BME280;15126;42.186;24.340;2022-10-17T11:30:44;100829.63;;;20.15;37.41
27729;BME280;15126;42.186;24.340;2022-10-17T11:33:16;100812.94;;;20.17;36.79
27729;BME280;15126;42.186;24.340;2022-10-17T11:35:46;100829.91;;;20.30;36.18
27729;BME280;15126;42.186;24.340;2022-10-17T11:38:17;100820.84;;;20.23;35.58
27729;BME280;15126;42.186;24.340;2022-10-17T11:40:49;100821.53;;;19.92;35.22
27729;BME280;15126;42.186;24.340;2022-10-17T11:43:20;100825.63;;;19.91;34.82
27729;BME280;15126;42.186;24.340;2022-10-17T11:45:52;100808.69;;;20.00;36.53
27729;BME280;15126;42.186;24.340;2022-10-17T11:48:23;100795.22;;;20.04;37.00
27729;BME280;15126;42.186;24.340;2022-10-17T11:50:59;100800.38;;;20.18;35.75
27729;BME280;15126;42.186;24.340;2022-10-17T11:53:30;100804.69;;;20.45;33.11
27729;BME280;15126;42.186;24.340;2022-10-17T11:56:05;100798.09;;;20.48;32.26
27729;BME280;15126;42.186;24.340;2022-10-17T11:58:39;100795.91;;;20.30;33.38
27729;BME280;15126;42.186;24.340;2022-10-17T12:01:14;100792.41;;;20.48;33.67
27729;BME280;15126;42.186;24.340;2022-10-17T12:04:03;100802.38;;;20.83;32.54
27729;BME280;15126;42.186;24.340;2022-10-17T12:06:44;100802.44;;;20.92;32.40
27729;BME280;15126;42.186;24.340;2022-10-17T12:09:21;100801.84;;;20.97;31.31
27729;BME280;15126;42.186;24.340;2022-10-17T12:11:52;100793.34;;;21.06;31.31
27729;BME280;15126;42.186;24.340;2022-10-17T12:14:42;100793.19;;;21.01;31.44
27729;BME280;15126;42.186;24.340;2022-10-17T12:17:32;100777.94;;;21.07;32.23
27729;BME280;15126;42.186;24.340;2022-10-17T12:20:27;100765.88;;;20.94;31.62
27729;BME280;15126;42.186;24.340;2022-10-17T12:23:01;100779.31;;;21.03;31.37
27729;BME280;15126;42.186;24.340;2022-10-17T12:25:30;100786.63;;;21.13;32.30
27729;BME280;15126;42.186;24.340;2022-10-17T12:28:09;100786.78;;;21.09;32.70
27729;BME280;15126;42.186;24.340;2022-10-17T12:30:49;100789.28;;;21.07;31.32
27729;BME280;15126;42.186;24.340;2022-10-17T12:33:18;100788.50;;;21.07;31.91
27729;BME280;15126;42.186;24.340;2022-10-17T12:35:47;100785.94;;;21.00;30.63
27729;BME280;15126;42.186;24.340;2022-10-17T12:38:23;100796.28;;;20.94;33.24
27729;BME280;15126;42.186;24.340;2022-10-17T12:41:00;100791.94;;;20.49;31.84
27729;BME280;15126;42.186;24.340;2022-10-17T12:43:51;100783.91;;;20.48;31.46
27729;BME280;15126;42.186;24.340;2022-10-17T12:46:43;100780.06;;;20.20;30.78
27729;BME280;15126;42.186;24.340;2022-10-17T12:52:28;100769.91;;;19.88;32.33
27729;BME280;15126;42.186;24.340;2022-10-17T12:55:16;100777.34;;;19.95;31.15
27729;BME280;15126;42.186;24.340;2022-10-17T12:57:55;100778.41;;;19.88;31.33
27729;BME280;15126;42.186;24.340;2022-10-17T13:00:28;100772.66;;;19.79;31.01
27729;BME280;15126;42.186;24.340;2022-10-17T13:03:04;100781.41;;;19.59;32.76
27729;BME280;15126;42.186;24.340;2022-10-17T13:05:33;100780.13;;;19.73;31.75
27729;BME280;15126;42.186;24.340;2022-10-17T13:08:04;100783.97;;;19.79;31.14
27729;BME280;15126;42.186;24.340;2022-10-17T13:10:36;100783.19;;;19.79;31.87
27729;BME280;15126;42.186;24.340;2022-10-17T13:13:16;100776.31;;;19.67;32.08